MMMZ/MZT METAR and TAF weather

Enter ICAO airport designator
Station Type Date Time Source
MMMZ METAR 2024/04/23 04:40 UTC NOAA

MMMZ 230440Z 00000KT 10SM SKC 19/18 A2992


Station Type Date Time Source
MMMZ Decoded METAR 2024/04/23 04:40 UTC NOAA

Mazatlan / G. Buelna, Mexico (MMMZ) 23-10N 106-16W
Apr 23, 2024 - 12:40 AM EDT / 2024.04.23 0440 UTC
Wind: Calm:0
Visibility: 10 mile(s):0
Sky conditions: clear
Temperature: 66 F (19 C)
Dew Point: 64 F (18 C)
Relative Humidity: 93%
Pressure (altimeter): 29.92 in. Hg (1013 hPa)
ob: MMMZ 230440Z 00000KT 10SM SKC 19/18 A2992
cycle: 4

Station Type Date Time Source
MMMZ TAF 2024/04/23 06:18 UTC NOAA